sensor_id;sensor_type;location;lat;lon;timestamp;temperature;humidity
23685;DHT22;12020;51.384;6.908;2024-01-27T00:02:21;5.20;99.90
23685;DHT22;12020;51.384;6.908;2024-01-27T00:04:58;5.10;99.90
23685;DHT22;12020;51.384;6.908;2024-01-27T00:07:26;5.10;99.90
23685;DHT22;12020;51.384;6.908;2024-01-27T00:10:01;5.10;99.90
23685;DHT22;12020;51.384;6.908;2024-01-27T00:12:37;5.10;99.90
23685;DHT22;12020;51.384;6.908;2024-01-27T00:15:14;5.00;99.90
23685;DHT22;12020;51.384;6.908;2024-01-27T00:17:46;5.00;99.90
23685;DHT22;12020;51.384;6.908;2024-01-27T00:20:15;5.00;99.90
23685;DHT22;12020;51.384;6.908;2024-01-27T00:22:53;5.00;99.90
23685;DHT22;12020;51.384;6.908;2024-01-27T00:25:23;5.00;99.90
23685;DHT22;12020;51.384;6.908;2024-01-27T00:27:51;5.00;99.90
23685;DHT22;12020;51.384;6.908;2024-01-27T00:30:21;5.00;99.90
23685;DHT22;12020;51.384;6.908;2024-01-27T00:32:54;5.00;99.90
23685;DHT22;12020;51.384;6.908;2024-01-27T00:35:29;5.00;99.90
23685;DHT22;12020;51.384;6.908;2024-01-27T00:37:55;4.90;99.90
23685;DHT22;12020;51.384;6.908;2024-01-27T00:43:42;4.90;99.90
23685;DHT22;12020;51.384;6.908;2024-01-27T00:46:09;5.00;99.90
23685;DHT22;12020;51.384;6.908;2024-01-27T00:48:41;4.90;99.90
23685;DHT22;12020;51.384;6.908;2024-01-27T00:51:24;4.90;99.90
23685;DHT22;12020;51.384;6.908;2024-01-27T00:54:28;4.90;99.90
23685;DHT22;12020;51.384;6.908;2024-01-27T00:56:54;4.80;99.90
23685;DHT22;12020;51.384;6.908;2024-01-27T00:59:34;4.80;99.90
23685;DHT22;12020;51.384;6.908;2024-01-27T01:02:08;4.70;99.90
23685;DHT22;12020;51.384;6.908;2024-01-27T01:04:38;4.70;99.90
23685;DHT22;12020;51.384;6.908;2024-01-27T01:07:11;4.70;99.90
23685;DHT22;12020;51.384;6.908;2024-01-27T01:09:45;4.60;99.90
23685;DHT22;12020;51.384;6.908;2024-01-27T01:12:20;4.60;99.90
23685;DHT22;12020;51.384;6.908;2024-01-27T01:14:47;4.60;99.90
23685;DHT22;12020;51.384;6.908;2024-01-27T01:17:27;4.50;99.90
23685;DHT22;12020;51.384;6.908;2024-01-27T01:20:01;4.50;99.90
23685;DHT22;12020;51.384;6.908;2024-01-27T01:22:37;4.40;99.90
23685;DHT22;12020;51.384;6.908;2024-01-27T01:25:08;4.40;99.90
23685;DHT22;12020;51.384;6.908;2024-01-27T01:27:36;4.30;99.90
23685;DHT22;12020;51.384;6.908;2024-01-27T01:30:08;4.40;99.90
23685;DHT22;12020;51.384;6.908;2024-01-27T01:32:48;4.40;99.90
23685;DHT22;12020;51.384;6.908;2024-01-27T01:35:15;4.30;99.90
23685;DHT22;12020;51.384;6.908;2024-01-27T01:37:47;4.30;99.90
23685;DHT22;12020;51.384;6.908;2024-01-27T01:40:15;4.10;99.90
23685;DHT22;12020;51.384;6.908;2024-01-27T01:45:55;4.20;99.90
23685;DHT22;12020;51.384;6.908;2024-01-27T01:48:24;4.20;99.90
23685;DHT22;12020;51.384;6.908;2024-01-27T01:50:52;4.20;99.90
23685;DHT22;12020;51.384;6.908;2024-01-27T01:53:29;4.20;99.90
23685;DHT22;12020;51.384;6.908;2024-01-27T01:56:13;4.20;99.90
23685;DHT22;12020;51.384;6.908;2024-01-27T01:58:42;4.20;99.90
23685;DHT22;12020;51.384;6.908;2024-01-27T02:01:08;4.20;99.90
23685;DHT22;12020;51.384;6.908;2024-01-27T02:03:39;4.10;99.90
23685;DHT22;12020;51.384;6.908;2024-01-27T02:06:07;4.10;99.90
23685;DHT22;12020;51.384;6.908;2024-01-27T02:08:36;4.20;99.90
23685;DHT22;12020;51.384;6.908;2024-01-27T02:11:04;4.10;99.90
23685;DHT22;12020;51.384;6.908;2024-01-27T07:09:46;2.70;99.90
23685;DHT22;12020;51.384;6.908;2024-01-27T07:12:11;2.60;99.90
23685;DHT22;12020;51.384;6.908;2024-01-27T07:14:37;2.70;99.90
23685;DHT22;12020;51.384;6.908;2024-01-27T07:17:04;2.70;99.90
23685;DHT22;12020;51.384;6.908;2024-01-27T07:19:31;2.70;99.90
23685;DHT22;12020;51.384;6.908;2024-01-27T07:22:00;2.70;99.90
23685;DHT22;12020;51.384;6.908;2024-01-27T07:24:26;2.80;99.90
23685;DHT22;12020;51.384;6.908;2024-01-27T07:26:54;2.70;99.90
23685;DHT22;12020;51.384;6.908;2024-01-27T07:29:19;2.80;99.90
23685;DHT22;12020;51.384;6.908;2024-01-27T07:31:45;2.70;99.90
23685;DHT22;12020;51.384;6.908;2024-01-27T07:34:11;2.80;99.90
23685;DHT22;12020;51.384;6.908;2024-01-27T07:36:37;2.80;99.90
23685;DHT22;12020;51.384;6.908;2024-01-27T07:39:03;2.90;99.90
23685;DHT22;12020;51.384;6.908;2024-01-27T07:41:30;3.00;99.90
23685;DHT22;12020;51.384;6.908;2024-01-27T07:43:56;3.00;99.90
23685;DHT22;12020;51.384;6.908;2024-01-27T07:46:22;2.90;99.90
23685;DHT22;12020;51.384;6.908;2024-01-27T07:48:48;2.80;99.90
23685;DHT22;12020;51.384;6.908;2024-01-27T07:51:15;2.80;99.90
23685;DHT22;12020;51.384;6.908;2024-01-27T07:53:41;2.80;99.90
23685;DHT22;12020;51.384;6.908;2024-01-27T07:56:07;3.00;99.90
23685;DHT22;12020;51.384;6.908;2024-01-27T07:58:33;2.80;99.90
23685;DHT22;12020;51.384;6.908;2024-01-27T08:00:59;2.90;99.90
23685;DHT22;12020;51.384;6.908;2024-01-27T08:03:25;2.90;99.90
23685;DHT22;12020;51.384;6.908;2024-01-27T08:05:51;2.90;99.90
23685;DHT22;12020;51.384;6.908;2024-01-27T08:08:17;2.90;99.90
23685;DHT22;12020;51.384;6.908;2024-01-27T08:10:46;2.90;99.90
23685;DHT22;12020;51.384;6.908;2024-01-27T08:13:12;3.00;99.90
23685;DHT22;12020;51.384;6.908;2024-01-27T08:15:38;2.90;99.90
23685;DHT22;12020;51.384;6.908;2024-01-27T08:18:04;2.90;99.90
23685;DHT22;12020;51.384;6.908;2024-01-27T08:20:29;3.00;99.90
23685;DHT22;12020;51.384;6.908;2024-01-27T08:22:55;3.10;99.90
23685;DHT22;12020;51.384;6.908;2024-01-27T08:25:22;3.10;99.90
23685;DHT22;12020;51.384;6.908;2024-01-27T08:27:47;3.00;99.90
23685;DHT22;12020;51.384;6.908;2024-01-27T08:30:13;3.10;99.90
23685;DHT22;12020;51.384;6.908;2024-01-27T08:32:42;3.10;99.90
23685;DHT22;12020;51.384;6.908;2024-01-27T08:35:11;3.10;99.90
23685;DHT22;12020;51.384;6.908;2024-01-27T08:37:40;3.10;99.90
23685;DHT22;12020;51.384;6.908;2024-01-27T08:40:07;3.20;99.90
23685;DHT22;12020;51.384;6.908;2024-01-27T08:42:34;3.20;99.90
23685;DHT22;12020;51.384;6.908;2024-01-27T08:45:01;3.40;99.90
23685;DHT22;12020;51.384;6.908;2024-01-27T08:47:26;3.30;99.90
23685;DHT22;12020;51.384;6.908;2024-01-27T08:49:53;3.30;99.90
23685;DHT22;12020;51.384;6.908;2024-01-27T08:52:19;3.30;99.90
23685;DHT22;12020;51.384;6.908;2024-01-27T08:54:44;3.40;99.90
23685;DHT22;12020;51.384;6.908;2024-01-27T08:57:10;3.50;99.90
23685;DHT22;12020;51.384;6.908;2024-01-27T08:59:36;3.60;99.90
23685;DHT22;12020;51.384;6.908;2024-01-27T09:02:02;3.60;99.90
23685;DHT22;12020;51.384;6.908;2024-01-27T09:04:28;3.70;99.90
23685;DHT22;12020;51.384;6.908;2024-01-27T09:06:53;3.80;99.90
23685;DHT22;12020;51.384;6.908;2024-01-27T09:09:19;3.90;99.90
23685;DHT22;12020;51.384;6.908;2024-01-27T09:11:45;3.90;99.90
23685;DHT22;12020;51.384;6.908;2024-01-27T09:14:11;4.20;99.90
23685;DHT22;12020;51.384;6.908;2024-01-27T09:16:37;4.10;99.90
23685;DHT22;12020;51.384;6.908;2024-01-27T09:19:03;4.40;99.90
23685;DHT22;12020;51.384;6.908;2024-01-27T09:21:29;4.20;99.90
23685;DHT22;12020;51.384;6.908;2024-01-27T09:23:57;4.20;99.90
23685;DHT22;12020;51.384;6.908;2024-01-27T09:26:24;4.30;99.90
23685;DHT22;12020;51.384;6.908;2024-01-27T09:28:49;4.40;99.90
23685;DHT22;12020;51.384;6.908;2024-01-27T09:31:22;4.30;99.90
23685;DHT22;12020;51.384;6.908;2024-01-27T09:33:51;4.30;99.90
23685;DHT22;12020;51.384;6.908;2024-01-27T09:36:18;4.40;99.90
23685;DHT22;12020;51.384;6.908;2024-01-27T09:38:45;4.40;99.90
23685;DHT22;12020;51.384;6.908;2024-01-27T09:41:13;4.40;99.90
23685;DHT22;12020;51.384;6.908;2024-01-27T09:43:43;4.50;99.90
23685;DHT22;12020;51.384;6.908;2024-01-27T09:46:11;4.50;99.90
23685;DHT22;12020;51.384;6.908;2024-01-27T09:48:36;4.50;99.90
23685;DHT22;12020;51.384;6.908;2024-01-27T09:51:05;4.60;99.90
23685;DHT22;12020;51.384;6.908;2024-01-27T09:53:33;4.70;99.90
23685;DHT22;12020;51.384;6.908;2024-01-27T09:56:01;4.90;99.90
23685;DHT22;12020;51.384;6.908;2024-01-27T09:58:29;4.80;99.90
23685;DHT22;12020;51.384;6.908;2024-01-27T10:00:59;4.90;99.90
23685;DHT22;12020;51.384;6.908;2024-01-27T10:03:27;5.10;99.90
23685;DHT22;12020;51.384;6.908;2024-01-27T10:05:53;5.20;99.90
23685;DHT22;12020;51.384;6.908;2024-01-27T10:08:20;5.40;99.90
23685;DHT22;12020;51.384;6.908;2024-01-27T10:10:47;5.60;99.90
23685;DHT22;12020;51.384;6.908;2024-01-27T10:13:17;5.80;99.90
23685;DHT22;12020;51.384;6.908;2024-01-27T10:15:44;5.90;99.90
23685;DHT22;12020;51.384;6.908;2024-01-27T10:18:10;6.10;99.90
23685;DHT22;12020;51.384;6.908;2024-01-27T10:20:39;6.30;99.90
23685;DHT22;12020;51.384;6.908;2024-01-27T10:23:14;6.50;99.90
23685;DHT22;12020;51.384;6.908;2024-01-27T10:25:47;6.60;99.90
23685;DHT22;12020;51.384;6.908;2024-01-27T10:28:15;6.70;99.90
23685;DHT22;12020;51.384;6.908;2024-01-27T10:30:46;6.80;99.90
23685;DHT22;12020;51.384;6.908;2024-01-27T10:33:14;7.00;99.90
23685;DHT22;12020;51.384;6.908;2024-01-27T10:35:43;7.10;99.90
23685;DHT22;12020;51.384;6.908;2024-01-27T10:38:10;7.20;99.90
23685;DHT22;12020;51.384;6.908;2024-01-27T10:40:36;7.30;99.90
23685;DHT22;12020;51.384;6.908;2024-01-27T10:43:07;7.40;99.90
23685;DHT22;12020;51.384;6.908;2024-01-27T10:45:41;7.60;99.90
23685;DHT22;12020;51.384;6.908;2024-01-27T10:48:08;7.70;99.90
23685;DHT22;12020;51.384;6.908;2024-01-27T10:50:39;7.80;99.90
23685;DHT22;12020;51.384;6.908;2024-01-27T10:53:09;7.90;99.90
23685;DHT22;12020;51.384;6.908;2024-01-27T10:55:44;7.90;99.90
23685;DHT22;12020;51.384;6.908;2024-01-27T10:58:12;8.10;99.90
23685;DHT22;12020;51.384;6.908;2024-01-27T11:00:40;8.20;99.90
23685;DHT22;12020;51.384;6.908;2024-01-27T11:03:07;8.30;99.90
23685;DHT22;12020;51.384;6.908;2024-01-27T11:05:35;8.30;99.90
23685;DHT22;12020;51.384;6.908;2024-01-27T11:08:01;8.30;99.90
23685;DHT22;12020;51.384;6.908;2024-01-27T11:10:29;8.30;99.90
23685;DHT22;12020;51.384;6.908;2024-01-27T11:13:03;8.40;99.90
23685;DHT22;12020;51.384;6.908;2024-01-27T11:15:29;8.30;99.90
23685;DHT22;12020;51.384;6.908;2024-01-27T11:17:57;8.40;99.90
23685;DHT22;12020;51.384;6.908;2024-01-27T11:20:24;8.40;99.90
23685;DHT22;12020;51.384;6.908;2024-01-27T11:22:49;8.40;99.90
23685;DHT22;12020;51.384;6.908;2024-01-27T11:25:18;8.40;99.90
23685;DHT22;12020;51.384;6.908;2024-01-27T11:27:45;8.30;99.90
23685;DHT22;12020;51.384;6.908;2024-01-27T11:30:31;8.30;99.90
23685;DHT22;12020;51.384;6.908;2024-01-27T11:33:04;8.30;99.90
23685;DHT22;12020;51.384;6.908;2024-01-27T11:35:30;8.40;99.90
23685;DHT22;12020;51.384;6.908;2024-01-27T11:37:55;8.40;99.90
23685;DHT22;12020;51.384;6.908;2024-01-27T11:40:21;8.40;99.90
23685;DHT22;12020;51.384;6.908;2024-01-27T11:43:01;8.40;99.90
23685;DHT22;12020;51.384;6.908;2024-01-27T11:45:28;8.50;99.90
23685;DHT22;12020;51.384;6.908;2024-01-27T11:48:00;8.50;99.90
23685;DHT22;12020;51.384;6.908;2024-01-27T11:50:27;8.50;99.90
23685;DHT22;12020;51.384;6.908;2024-01-27T11:52:53;8.60;99.90
23685;DHT22;12020;51.384;6.908;2024-01-27T11:55:19;8.60;99.90
23685;DHT22;12020;51.384;6.908;2024-01-27T11:57:45;8.60;99.90
23685;DHT22;12020;51.384;6.908;2024-01-27T12:00:11;8.60;99.90
23685;DHT22;12020;51.384;6.908;2024-01-27T12:02:38;8.60;99.90
23685;DHT22;12020;51.384;6.908;2024-01-27T12:05:05;8.60;99.90
23685;DHT22;12020;51.384;6.908;2024-01-27T12:07:32;8.60;99.90
23685;DHT22;12020;51.384;6.908;2024-01-27T12:09:58;8.70;99.90
23685;DHT22;12020;51.384;6.908;2024-01-27T12:12:26;8.60;99.90
23685;DHT22;12020;51.384;6.908;2024-01-27T12:14:53;8.60;99.90
23685;DHT22;12020;51.384;6.908;2024-01-27T12:17:19;8.60;99.90
23685;DHT22;12020;51.384;6.908;2024-01-27T12:19:49;8.70;99.90
23685;DHT22;12020;51.384;6.908;2024-01-27T12:22:28;8.60;99.90
23685;DHT22;12020;51.384;6.908;2024-01-27T12:25:08;8.60;99.90
23685;DHT22;12020;51.384;6.908;2024-01-27T12:27:35;8.70;99.90
23685;DHT22;12020;51.384;6.908;2024-01-27T12:30:01;8.70;99.90
23685;DHT22;12020;51.384;6.908;2024-01-27T12:32:28;8.70;99.90
23685;DHT22;12020;51.384;6.908;2024-01-27T12:34:54;8.70;99.90
23685;DHT22;12020;51.384;6.908;2024-01-27T12:37:22;8.70;99.90
23685;DHT22;12020;51.384;6.908;2024-01-27T12:39:48;8.70;99.90
23685;DHT22;12020;51.384;6.908;2024-01-27T12:42:18;8.70;99.90
23685;DHT22;12020;51.384;6.908;2024-01-27T12:44:43;8.70;99.90
23685;DHT22;12020;51.384;6.908;2024-01-27T12:47:17;8.60;99.90
23685;DHT22;12020;51.384;6.908;2024-01-27T12:50:13;8.70;99.90
23685;DHT22;12020;51.384;6.908;2024-01-27T12:53:01;8.70;99.90
23685;DHT22;12020;51.384;6.908;2024-01-27T12:58:50;8.60;99.90
23685;DHT22;12020;51.384;6.908;2024-01-27T13:01:21;8.60;99.90
23685;DHT22;12020;51.384;6.908;2024-01-27T13:03:50;8.60;99.90
23685;DHT22;12020;51.384;6.908;2024-01-27T13:09:47;8.70;99.90
23685;DHT22;12020;51.384;6.908;2024-01-27T13:12:19;8.70;99.90
23685;DHT22;12020;51.384;6.908;2024-01-27T13:14:49;8.70;99.90
23685;DHT22;12020;51.384;6.908;2024-01-27T13:17:16;8.60;99.90
23685;DHT22;12020;51.384;6.908;2024-01-27T13:19:45;8.60;99.90
23685;DHT22;12020;51.384;6.908;2024-01-27T13:22:14;8.60;99.90
23685;DHT22;12020;51.384;6.908;2024-01-27T13:28:33;8.40;99.90
23685;DHT22;12020;51.384;6.908;2024-01-27T13:33:41;8.40;99.90
23685;DHT22;12020;51.384;6.908;2024-01-27T13:45:05;8.20;99.90
23685;DHT22;12020;51.384;6.908;2024-01-27T13:51:05;8.30;99.90
23685;DHT22;12020;51.384;6.908;2024-01-27T13:53:52;8.30;99.90
23685;DHT22;12020;51.384;6.908;2024-01-27T13:56:22;8.30;99.90
23685;DHT22;12020;51.384;6.908;2024-01-27T13:58:55;8.30;99.90
23685;DHT22;12020;51.384;6.908;2024-01-27T14:03:57;8.30;99.90
23685;DHT22;12020;51.384;6.908;2024-01-27T14:06:34;8.40;99.90
23685;DHT22;12020;51.384;6.908;2024-01-27T14:09:10;8.30;99.90
23685;DHT22;12020;51.384;6.908;2024-01-27T14:14:48;8.30;99.90
23685;DHT22;12020;51.384;6.908;2024-01-27T14:17:17;8.30;99.90
23685;DHT22;12020;51.384;6.908;2024-01-27T14:20:11;8.20;99.90
23685;DHT22;12020;51.384;6.908;2024-01-27T14:23:03;8.30;99.90
23685;DHT22;12020;51.384;6.908;2024-01-27T14:25:35;8.30;99.90
23685;DHT22;12020;51.384;6.908;2024-01-27T14:28:26;8.30;99.90
23685;DHT22;12020;51.384;6.908;2024-01-27T14:31:19;8.30;99.90
23685;DHT22;12020;51.384;6.908;2024-01-27T14:37:19;8.30;99.90
23685;DHT22;12020;51.384;6.908;2024-01-27T14:39:54;8.20;99.90
23685;DHT22;12020;51.384;6.908;2024-01-27T14:46:11;8.20;99.90
23685;DHT22;12020;51.384;6.908;2024-01-27T14:51:55;8.30;99.90
23685;DHT22;12020;51.384;6.908;2024-01-27T14:54:39;8.20;99.90
23685;DHT22;12020;51.384;6.908;2024-01-27T14:57:08;8.20;99.90
23685;DHT22;12020;51.384;6.908;2024-01-27T14:59:57;8.20;99.90
23685;DHT22;12020;51.384;6.908;2024-01-27T15:02:39;8.20;99.90
23685;DHT22;12020;51.384;6.908;2024-01-27T15:05:05;8.10;99.90
23685;DHT22;12020;51.384;6.908;2024-01-27T15:07:51;8.10;99.90
23685;DHT22;12020;51.384;6.908;2024-01-27T15:10:20;8.00;99.90
23685;DHT22;12020;51.384;6.908;2024-01-27T15:12:55;8.10;99.90
23685;DHT22;12020;51.384;6.908;2024-01-27T15:15:50;8.10;99.90
23685;DHT22;12020;51.384;6.908;2024-01-27T15:22:14;8.00;99.90
23685;DHT22;12020;51.384;6.908;2024-01-27T15:28:16;7.90;99.90
23685;DHT22;12020;51.384;6.908;2024-01-27T15:30:45;7.90;99.90
23685;DHT22;12020;51.384;6.908;2024-01-27T15:33:38;7.80;99.90
23685;DHT22;12020;51.384;6.908;2024-01-27T15:36:11;7.80;99.90
23685;DHT22;12020;51.384;6.908;2024-01-27T15:39:07;7.80;99.90
23685;DHT22;12020;51.384;6.908;2024-01-27T15:41:35;7.70;99.90
23685;DHT22;12020;51.384;6.908;2024-01-27T15:44:05;7.70;99.90
23685;DHT22;12020;51.384;6.908;2024-01-27T15:46:31;7.70;99.90
23685;DHT22;12020;51.384;6.908;2024-01-27T15:49:22;7.60;99.90
23685;DHT22;12020;51.384;6.908;2024-01-27T15:51:59;7.60;99.90
23685;DHT22;12020;51.384;6.908;2024-01-27T15:54:24;7.50;99.90
23685;DHT22;12020;51.384;6.908;2024-01-27T15:56:51;7.50;99.90
23685;DHT22;12020;51.384;6.908;2024-01-27T15:59:18;7.40;99.90
23685;DHT22;12020;51.384;6.908;2024-01-27T16:01:52;7.40;99.90
23685;DHT22;12020;51.384;6.908;2024-01-27T16:04:26;7.30;99.90
23685;DHT22;12020;51.384;6.908;2024-01-27T16:06:53;7.30;99.90
23685;DHT22;12020;51.384;6.908;2024-01-27T16:09:20;7.10;99.90
23685;DHT22;12020;51.384;6.908;2024-01-27T16:11:46;7.10;99.90
23685;DHT22;12020;51.384;6.908;2024-01-27T16:14:20;7.00;99.90
23685;DHT22;12020;51.384;6.908;2024-01-27T16:16:49;7.00;99.90
23685;DHT22;12020;51.384;6.908;2024-01-27T16:19:24;7.00;99.90
23685;DHT22;12020;51.384;6.908;2024-01-27T16:21:56;6.90;99.90
23685;DHT22;12020;51.384;6.908;2024-01-27T16:24:26;6.80;99.90
23685;DHT22;12020;51.384;6.908;2024-01-27T16:26:52;6.80;99.90
23685;DHT22;12020;51.384;6.908;2024-01-27T16:29:30;6.70;99.90
23685;DHT22;12020;51.384;6.908;2024-01-27T16:31:56;6.70;99.90
23685;DHT22;12020;51.384;6.908;2024-01-27T16:34:23;6.60;99.90
23685;DHT22;12020;51.384;6.908;2024-01-27T16:36:51;6.60;99.90
23685;DHT22;12020;51.384;6.908;2024-01-27T16:39:22;6.50;99.90
23685;DHT22;12020;51.384;6.908;2024-01-27T16:41:49;6.40;99.90
23685;DHT22;12020;51.384;6.908;2024-01-27T16:44:27;6.30;99.90
23685;DHT22;12020;51.384;6.908;2024-01-27T16:47:03;6.20;99.90
23685;DHT22;12020;51.384;6.908;2024-01-27T16:49:36;6.10;99.90
23685;DHT22;12020;51.384;6.908;2024-01-27T16:52:06;6.20;99.90
23685;DHT22;12020;51.384;6.908;2024-01-27T17:04:59;6.10;99.90
23685;DHT22;12020;51.384;6.908;2024-01-27T17:11:09;6.00;99.90
23685;DHT22;12020;51.384;6.908;2024-01-27T17:23:46;5.50;99.90
23685;DHT22;12020;51.384;6.908;2024-01-27T17:26:24;5.50;99.90
23685;DHT22;12020;51.384;6.908;2024-01-27T17:28:50;5.40;99.90
23685;DHT22;12020;51.384;6.908;2024-01-27T17:31:18;5.40;99.90
23685;DHT22;12020;51.384;6.908;2024-01-27T17:33:44;5.30;99.90
23685;DHT22;12020;51.384;6.908;2024-01-27T17:36:10;5.20;99.90
23685;DHT22;12020;51.384;6.908;2024-01-27T17:38:36;5.20;99.90
23685;DHT22;12020;51.384;6.908;2024-01-27T17:49:03;5.00;99.90
23685;DHT22;12020;51.384;6.908;2024-01-27T17:51:35;5.10;99.90
23685;DHT22;12020;51.384;6.908;2024-01-27T17:54:05;4.90;99.90
23685;DHT22;12020;51.384;6.908;2024-01-27T17:56:35;4.90;99.90
23685;DHT22;12020;51.384;6.908;2024-01-27T17:59:03;4.90;99.90
23685;DHT22;12020;51.384;6.908;2024-01-27T18:01:33;4.90;99.90
23685;DHT22;12020;51.384;6.908;2024-01-27T18:04:06;4.80;99.90
23685;DHT22;12020;51.384;6.908;2024-01-27T18:06:34;4.80;99.90
23685;DHT22;12020;51.384;6.908;2024-01-27T18:09:02;4.80;99.90
23685;DHT22;12020;51.384;6.908;2024-01-27T18:11:32;4.80;99.90
23685;DHT22;12020;51.384;6.908;2024-01-27T18:14:04;4.80;99.90
23685;DHT22;12020;51.384;6.908;2024-01-27T18:16:30;4.70;99.90
23685;DHT22;12020;51.384;6.908;2024-01-27T18:18:58;4.80;99.90
23685;DHT22;12020;51.384;6.908;2024-01-27T18:21:24;4.70;99.90
23685;DHT22;12020;51.384;6.908;2024-01-27T18:23:57;4.60;99.90
23685;DHT22;12020;51.384;6.908;2024-01-27T18:26:24;4.50;99.90
23685;DHT22;12020;51.384;6.908;2024-01-27T18:28:52;4.50;99.90
23685;DHT22;12020;51.384;6.908;2024-01-27T18:31:19;4.40;99.90
23685;DHT22;12020;51.384;6.908;2024-01-27T18:33:47;4.30;99.90
23685;DHT22;12020;51.384;6.908;2024-01-27T18:36:18;4.30;99.90
23685;DHT22;12020;51.384;6.908;2024-01-27T18:38:50;4.10;99.90
23685;DHT22;12020;51.384;6.908;2024-01-27T18:41:16;4.10;99.90
23685;DHT22;12020;51.384;6.908;2024-01-27T18:43:48;3.90;99.90
23685;DHT22;12020;51.384;6.908;2024-01-27T18:46:16;3.90;99.90
23685;DHT22;12020;51.384;6.908;2024-01-27T18:48:45;3.80;99.90
23685;DHT22;12020;51.384;6.908;2024-01-27T18:51:15;3.80;99.90
23685;DHT22;12020;51.384;6.908;2024-01-27T18:53:43;3.90;99.90
23685;DHT22;12020;51.384;6.908;2024-01-27T18:56:19;3.80;99.90
23685;DHT22;12020;51.384;6.908;2024-01-27T18:58:45;3.80;99.90
23685;DHT22;12020;51.384;6.908;2024-01-27T19:01:11;3.80;99.90
23685;DHT22;12020;51.384;6.908;2024-01-27T19:04:03;3.80;99.90
23685;DHT22;12020;51.384;6.908;2024-01-27T19:06:33;3.80;99.90
23685;DHT22;12020;51.384;6.908;2024-01-27T19:09:00;3.80;99.90
23685;DHT22;12020;51.384;6.908;2024-01-27T19:11:26;3.80;99.90
23685;DHT22;12020;51.384;6.908;2024-01-27T19:13:54;3.80;99.90
23685;DHT22;12020;51.384;6.908;2024-01-27T19:16:22;3.70;99.90
23685;DHT22;12020;51.384;6.908;2024-01-27T19:18:49;3.70;99.90
23685;DHT22;12020;51.384;6.908;2024-01-27T19:21:14;3.80;99.90
23685;DHT22;12020;51.384;6.908;2024-01-27T19:23:46;3.90;99.90
23685;DHT22;12020;51.384;6.908;2024-01-27T19:26:13;3.70;99.90
23685;DHT22;12020;51.384;6.908;2024-01-27T19:28:39;3.70;99.90
23685;DHT22;12020;51.384;6.908;2024-01-27T19:31:14;3.60;99.90
23685;DHT22;12020;51.384;6.908;2024-01-27T19:33:41;3.60;99.90
23685;DHT22;12020;51.384;6.908;2024-01-27T19:36:10;3.60;99.90
23685;DHT22;12020;51.384;6.908;2024-01-27T19:38:39;3.60;99.90
23685;DHT22;12020;51.384;6.908;2024-01-27T19:41:12;3.60;99.90
23685;DHT22;12020;51.384;6.908;2024-01-27T19:43:44;3.60;99.90
23685;DHT22;12020;51.384;6.908;2024-01-27T19:46:34;3.60;99.90
23685;DHT22;12020;51.384;6.908;2024-01-27T19:49:24;3.70;99.90
23685;DHT22;12020;51.384;6.908;2024-01-27T19:51:59;3.60;99.90
23685;DHT22;12020;51.384;6.908;2024-01-27T19:54:32;3.50;99.90
23685;DHT22;12020;51.384;6.908;2024-01-27T19:57:08;3.50;99.90
23685;DHT22;12020;51.384;6.908;2024-01-27T19:59:34;3.40;99.90
23685;DHT22;12020;51.384;6.908;2024-01-27T20:02:02;3.50;99.90
23685;DHT22;12020;51.384;6.908;2024-01-27T20:04:29;3.40;99.90
23685;DHT22;12020;51.384;6.908;2024-01-27T20:06:58;3.40;99.90
23685;DHT22;12020;51.384;6.908;2024-01-27T20:09:31;3.30;99.90
23685;DHT22;12020;51.384;6.908;2024-01-27T20:12:20;3.30;99.90
23685;DHT22;12020;51.384;6.908;2024-01-27T20:17:54;3.10;99.90
23685;DHT22;12020;51.384;6.908;2024-01-27T20:20:22;3.10;99.90
23685;DHT22;12020;51.384;6.908;2024-01-27T20:26:45;3.10;99.90
23685;DHT22;12020;51.384;6.908;2024-01-27T20:29:21;3.10;99.90
23685;DHT22;12020;51.384;6.908;2024-01-27T20:34:24;3.10;99.90
23685;DHT22;12020;51.384;6.908;2024-01-27T20:36:57;3.00;99.90
23685;DHT22;12020;51.384;6.908;2024-01-27T20:39:30;3.00;99.90
23685;DHT22;12020;51.384;6.908;2024-01-27T20:42:22;3.10;99.90
23685;DHT22;12020;51.384;6.908;2024-01-27T20:44:48;2.90;99.90
23685;DHT22;12020;51.384;6.908;2024-01-27T20:47:16;3.00;99.90
23685;DHT22;12020;51.384;6.908;2024-01-27T20:49:43;4.00;99.90
23685;DHT22;12020;51.384;6.908;2024-01-27T20:52:11;4.10;99.90
23685;DHT22;12020;51.384;6.908;2024-01-27T20:54:38;3.80;99.90
23685;DHT22;12020;51.384;6.908;2024-01-27T20:57:05;3.60;99.90
23685;DHT22;12020;51.384;6.908;2024-01-27T20:59:33;3.40;99.90
23685;DHT22;12020;51.384;6.908;2024-01-27T21:02:06;3.40;99.90
23685;DHT22;12020;51.384;6.908;2024-01-27T21:04:36;3.30;99.90
23685;DHT22;12020;51.384;6.908;2024-01-27T21:07:05;3.10;99.90
23685;DHT22;12020;51.384;6.908;2024-01-27T21:09:32;3.00;99.90
23685;DHT22;12020;51.384;6.908;2024-01-27T21:12:01;2.90;99.90
23685;DHT22;12020;51.384;6.908;2024-01-27T21:14:28;2.90;99.90
23685;DHT22;12020;51.384;6.908;2024-01-27T21:17:00;2.90;99.90
23685;DHT22;12020;51.384;6.908;2024-01-27T21:19:35;2.80;99.90
23685;DHT22;12020;51.384;6.908;2024-01-27T21:22:13;2.80;99.90
23685;DHT22;12020;51.384;6.908;2024-01-27T21:24:47;2.80;99.90
23685;DHT22;12020;51.384;6.908;2024-01-27T21:27:22;2.60;99.90
23685;DHT22;12020;51.384;6.908;2024-01-27T21:29:53;2.60;99.90
23685;DHT22;12020;51.384;6.908;2024-01-27T21:32:19;2.60;99.90
23685;DHT22;12020;51.384;6.908;2024-01-27T21:34:50;2.60;99.90
23685;DHT22;12020;51.384;6.908;2024-01-27T21:37:17;2.60;99.90
23685;DHT22;12020;51.384;6.908;2024-01-27T21:39:43;2.60;99.90
23685;DHT22;12020;51.384;6.908;2024-01-27T21:42:10;2.50;99.90
23685;DHT22;12020;51.384;6.908;2024-01-27T21:44:35;2.60;99.90
23685;DHT22;12020;51.384;6.908;2024-01-27T21:47:01;2.50;99.90
23685;DHT22;12020;51.384;6.908;2024-01-27T21:49:27;2.60;99.90
23685;DHT22;12020;51.384;6.908;2024-01-27T21:51:52;2.50;99.90
23685;DHT22;12020;51.384;6.908;2024-01-27T21:54:18;2.50;99.90
23685;DHT22;12020;51.384;6.908;2024-01-27T21:56:44;2.40;99.90
23685;DHT22;12020;51.384;6.908;2024-01-27T21:59:10;2.40;99.90
23685;DHT22;12020;51.384;6.908;2024-01-27T22:01:35;2.30;99.90
23685;DHT22;12020;51.384;6.908;2024-01-27T22:04:01;2.40;99.90
23685;DHT22;12020;51.384;6.908;2024-01-27T22:06:27;2.30;99.90
23685;DHT22;12020;51.384;6.908;2024-01-27T22:08:52;2.40;99.90
23685;DHT22;12020;51.384;6.908;2024-01-27T22:11:19;2.30;99.90
23685;DHT22;12020;51.384;6.908;2024-01-27T22:13:45;2.30;99.90
23685;DHT22;12020;51.384;6.908;2024-01-27T22:16:11;2.40;99.90
23685;DHT22;12020;51.384;6.908;2024-01-27T22:18:37;2.40;99.90
23685;DHT22;12020;51.384;6.908;2024-01-27T22:21:02;2.20;99.90
23685;DHT22;12020;51.384;6.908;2024-01-27T22:23:29;2.30;99.90
23685;DHT22;12020;51.384;6.908;2024-01-27T22:25:55;2.50;99.90
23685;DHT22;12020;51.384;6.908;2024-01-27T22:28:23;2.30;99.90
23685;DHT22;12020;51.384;6.908;2024-01-27T22:30:48;2.40;99.90
23685;DHT22;12020;51.384;6.908;2024-01-27T22:33:14;2.50;99.90
23685;DHT22;12020;51.384;6.908;2024-01-27T22:35:42;2.50;99.90
23685;DHT22;12020;51.384;6.908;2024-01-27T22:38:08;2.60;99.90